createdAt,value
2018-12-11T00:01:51.238Z,5.60
2018-12-11T00:04:20.689Z,5.60
2018-12-11T00:06:51.776Z,5.70
2018-12-11T00:09:20.207Z,5.70
2018-12-11T00:11:48.436Z,5.60
2018-12-11T00:14:16.668Z,5.60
2018-12-11T00:16:45.652Z,5.70
2018-12-11T00:19:15.938Z,5.60
2018-12-11T00:21:44.232Z,5.60
2018-12-11T00:24:14.739Z,5.50
2018-12-11T00:26:43.148Z,5.50
2018-12-11T00:29:11.482Z,5.50
2018-12-11T00:31:39.897Z,5.50
2018-12-11T00:34:08.285Z,5.40
2018-12-11T00:36:36.555Z,5.50
2018-12-11T00:39:07.067Z,5.50
2018-12-11T00:41:35.343Z,5.50
2018-12-11T00:44:03.779Z,5.60
2018-12-11T00:46:32.089Z,5.70
2018-12-11T00:49:00.263Z,5.70
2018-12-11T00:51:28.677Z,5.70
2018-12-11T00:53:56.854Z,5.70
2018-12-11T00:56:25.190Z,5.70
2018-12-11T00:58:53.403Z,5.50
2018-12-11T01:01:21.762Z,5.60
2018-12-11T01:03:50.063Z,5.60
2018-12-11T01:06:20.317Z,5.70
2018-12-11T01:08:48.691Z,5.60
2018-12-11T01:11:16.962Z,5.80
2018-12-11T01:13:45.292Z,5.80
2018-12-11T01:16:13.756Z,5.70
2018-12-11T01:18:42.000Z,5.60
2018-12-11T01:21:10.284Z,5.60
2018-12-11T01:23:38.694Z,5.70
2018-12-11T01:26:07.067Z,5.60
2018-12-11T01:28:35.349Z,5.70
2018-12-11T01:31:03.884Z,5.80
2018-12-11T01:33:32.116Z,5.90
2018-12-11T01:36:00.378Z,5.90
2018-12-11T01:38:28.683Z,5.70
2018-12-11T01:40:56.978Z,5.70
2018-12-11T01:43:25.197Z,5.80
2018-12-11T01:45:53.450Z,5.90
2018-12-11T01:48:21.781Z,5.80
2018-12-11T01:50:50.161Z,5.80
2018-12-11T01:53:18.472Z,5.80
2018-12-11T01:55:46.830Z,5.80
2018-12-11T01:58:15.121Z,5.70
2018-12-11T02:00:43.433Z,5.80
2018-12-11T02:03:11.714Z,5.90
2018-12-11T02:05:39.986Z,5.60
2018-12-11T02:08:08.184Z,5.70
2018-12-11T02:10:36.475Z,5.80
2018-12-11T02:13:04.774Z,5.60
2018-12-11T02:15:33.112Z,5.50
2018-12-11T02:18:01.456Z,5.70
2018-12-11T02:20:29.682Z,5.60
2018-12-11T02:22:57.908Z,5.70
2018-12-11T02:25:26.332Z,5.60
2018-12-11T02:27:54.692Z,5.70
2018-12-11T02:30:22.933Z,5.80
2018-12-11T02:32:51.236Z,5.80
2018-12-11T02:35:19.608Z,5.80
2018-12-11T02:37:47.815Z,5.80
2018-12-11T02:40:16.097Z,5.80
2018-12-11T02:42:44.453Z,5.80
2018-12-11T02:45:12.798Z,5.80
2018-12-11T02:47:40.986Z,5.80
2018-12-11T02:50:09.491Z,5.80
2018-12-11T02:52:37.787Z,5.80
2018-12-11T02:55:06.346Z,5.80
2018-12-11T02:57:34.539Z,5.90
2018-12-11T03:00:03.102Z,5.70
2018-12-11T03:02:31.478Z,5.80
2018-12-11T03:04:59.693Z,5.90
2018-12-11T03:07:27.993Z,5.90
2018-12-11T03:09:56.268Z,5.90
2018-12-11T03:12:24.565Z,5.80
2018-12-11T03:14:52.774Z,5.80
2018-12-11T03:17:21.134Z,5.80
2018-12-11T03:19:49.495Z,5.70
2018-12-11T03:22:17.790Z,5.60
2018-12-11T03:24:46.270Z,5.70
2018-12-11T03:27:14.471Z,5.80
2018-12-11T03:29:42.706Z,6.00
2018-12-11T03:32:10.879Z,5.80
2018-12-11T03:34:39.122Z,5.80
2018-12-11T03:37:07.477Z,6.00
2018-12-11T03:39:35.714Z,5.90
2018-12-11T03:42:04.123Z,5.90
2018-12-11T03:44:32.542Z,6.10
2018-12-11T03:47:00.826Z,5.90
2018-12-11T03:49:29.080Z,6.00
2018-12-11T03:51:57.365Z,6.10
2018-12-11T03:54:25.624Z,6.10
2018-12-11T03:56:53.887Z,6.10
2018-12-11T03:59:22.258Z,6.00
2018-12-11T04:01:50.516Z,5.90
2018-12-11T04:04:18.776Z,5.90
2018-12-11T04:06:46.988Z,5.90
2018-12-11T04:09:15.252Z,6.00
2018-12-11T04:11:43.566Z,6.10
2018-12-11T04:14:12.010Z,6.20
2018-12-11T04:16:40.284Z,6.20
2018-12-11T04:19:08.563Z,6.20
2018-12-11T04:21:36.836Z,6.00
2018-12-11T04:24:05.100Z,6.10
2018-12-11T04:26:33.327Z,5.80
2018-12-11T04:29:01.583Z,5.90
2018-12-11T04:31:29.898Z,6.00
2018-12-11T04:33:58.159Z,6.10
2018-12-11T04:36:26.368Z,6.00
2018-12-11T04:38:54.621Z,5.90
2018-12-11T04:41:23.039Z,5.90
2018-12-11T04:43:51.322Z,5.80
2018-12-11T04:46:19.550Z,5.90
2018-12-11T04:48:47.748Z,5.60
2018-12-11T04:51:16.067Z,5.70
2018-12-11T04:53:44.290Z,5.70
2018-12-11T04:56:12.714Z,5.50
2018-12-11T04:58:40.999Z,5.50
2018-12-11T05:01:09.299Z,5.60
2018-12-11T05:03:37.558Z,5.60
2018-12-11T05:06:05.937Z,5.60
2018-12-11T05:08:34.213Z,5.70
2018-12-11T05:11:02.679Z,5.50
2018-12-11T05:13:31.165Z,5.60
2018-12-11T05:15:59.578Z,5.70
2018-12-11T05:18:27.841Z,5.50
2018-12-11T05:20:56.147Z,5.60
2018-12-11T05:23:24.517Z,5.50
2018-12-11T05:25:52.867Z,5.60
2018-12-11T05:28:21.208Z,5.50
2018-12-11T05:30:49.623Z,5.60
2018-12-11T05:33:17.963Z,5.50
2018-12-11T05:35:46.350Z,5.50
2018-12-11T05:38:14.632Z,5.70
2018-12-11T05:40:42.944Z,5.60
2018-12-11T05:43:11.357Z,5.70
2018-12-11T05:45:39.678Z,5.70
2018-12-11T05:48:09.995Z,5.60
2018-12-11T05:50:38.255Z,5.60
2018-12-11T05:53:06.585Z,5.60
2018-12-11T05:55:34.926Z,5.60
2018-12-11T05:58:03.210Z,5.60
2018-12-11T06:00:31.498Z,5.60
2018-12-11T06:02:59.757Z,5.60
2018-12-11T06:05:28.083Z,5.40
2018-12-11T06:07:56.398Z,5.30
2018-12-11T06:10:24.669Z,5.40
2018-12-11T06:12:52.927Z,5.40
2018-12-11T06:15:21.288Z,5.40
2018-12-11T06:17:49.616Z,5.10
2018-12-11T06:20:17.962Z,5.10
2018-12-11T06:22:46.213Z,5.10
2018-12-11T06:25:14.460Z,5.30
2018-12-11T06:27:42.701Z,5.10
2018-12-11T06:30:11.043Z,5.20
2018-12-11T06:32:39.396Z,5.30
2018-12-11T06:35:07.732Z,5.20
2018-12-11T06:37:36.050Z,5.30
2018-12-11T06:40:04.850Z,5.30
2018-12-11T06:42:33.230Z,5.20
2018-12-11T06:45:01.557Z,5.20
2018-12-11T06:47:29.872Z,5.30
2018-12-11T06:49:58.181Z,5.20
2018-12-11T06:52:26.453Z,5.10
2018-12-11T06:54:54.707Z,5.20
2018-12-11T06:57:22.978Z,5.20
2018-12-11T06:59:51.177Z,5.30
2018-12-11T07:02:19.507Z,5.40
2018-12-11T07:04:47.962Z,5.40
2018-12-11T07:07:16.245Z,5.50
2018-12-11T07:09:45.348Z,5.40
2018-12-11T07:12:13.611Z,5.50
2018-12-11T07:14:41.834Z,5.50
2018-12-11T07:17:10.169Z,5.50
2018-12-11T07:19:38.426Z,5.40
2018-12-11T07:22:06.880Z,5.50
2018-12-11T07:24:35.230Z,5.50
2018-12-11T07:27:03.748Z,5.60
2018-12-11T07:29:33.398Z,5.60
2018-12-11T07:32:01.648Z,5.60
2018-12-11T07:34:29.880Z,5.40
2018-12-11T07:36:58.151Z,5.50
2018-12-11T07:39:26.677Z,5.50
2018-12-11T07:41:54.916Z,5.40
2018-12-11T07:44:23.162Z,5.50
2018-12-11T07:46:51.449Z,5.60
2018-12-11T07:49:19.726Z,5.50
2018-12-11T07:51:48.083Z,5.60
2018-12-11T07:54:16.329Z,5.60
2018-12-11T07:56:44.625Z,5.60
2018-12-11T07:59:12.911Z,5.50
2018-12-11T08:01:41.374Z,5.20
2018-12-11T08:04:09.619Z,5.10
2018-12-11T08:06:38.079Z,5.20
2018-12-11T08:09:07.457Z,5.30
2018-12-11T08:11:35.723Z,5.30
2018-12-11T08:14:04.009Z,5.30
2018-12-11T08:16:32.713Z,5.30
2018-12-11T08:19:01.226Z,5.30
2018-12-11T08:21:29.530Z,5.40
2018-12-11T08:23:57.769Z,5.30
2018-12-11T08:26:26.268Z,5.40
2018-12-11T08:28:54.569Z,5.30
2018-12-11T08:31:22.812Z,5.30
2018-12-11T08:33:51.047Z,5.40
2018-12-11T08:36:19.524Z,5.50
2018-12-11T08:38:47.842Z,5.40
2018-12-11T08:41:17.482Z,5.30
2018-12-11T08:43:45.791Z,5.30
2018-12-11T08:46:14.149Z,5.30
2018-12-11T08:48:42.477Z,5.40
2018-12-11T08:51:10.874Z,5.60
2018-12-11T08:53:39.308Z,5.60
2018-12-11T08:56:07.546Z,5.70
2018-12-11T08:58:35.887Z,5.80
2018-12-11T09:01:04.331Z,5.60
2018-12-11T09:03:32.551Z,5.60
2018-12-11T09:06:00.860Z,5.70
2018-12-11T09:08:29.153Z,5.60
2018-12-11T09:10:57.459Z,5.70
2018-12-11T09:13:25.683Z,5.40
2018-12-11T09:15:53.925Z,5.40
2018-12-11T09:18:22.143Z,5.50
2018-12-11T09:20:50.387Z,5.50
2018-12-11T09:23:18.798Z,5.60
2018-12-11T09:25:47.066Z,5.60
2018-12-11T09:28:15.405Z,5.60
2018-12-11T09:30:43.689Z,5.70
2018-12-11T09:33:11.994Z,5.90
2018-12-11T09:52:56.510Z,5.70
2018-12-11T09:55:24.813Z,5.80
2018-12-11T09:57:53.082Z,5.80
2018-12-11T10:00:25.774Z,5.90
2018-12-11T10:02:51.738Z,5.80
2018-12-11T10:05:20.054Z,5.90
2018-12-11T10:07:48.398Z,6.00
2018-12-11T10:10:16.617Z,6.00
2018-12-11T10:12:44.983Z,5.90
2018-12-11T10:15:13.469Z,5.80
2018-12-11T10:17:41.759Z,5.90
2018-12-11T10:20:10.623Z,6.00
2018-12-11T10:22:38.981Z,6.00
2018-12-11T10:25:07.790Z,6.10
2018-12-11T10:27:36.153Z,6.00
2018-12-11T10:30:06.160Z,6.00
2018-12-11T10:32:34.508Z,6.00
2018-12-11T10:35:02.902Z,6.00
2018-12-11T10:37:31.205Z,6.10
2018-12-11T10:39:59.497Z,6.30
2018-12-11T10:42:27.716Z,6.10
2018-12-11T10:44:56.042Z,6.10
2018-12-11T10:47:24.406Z,6.20
2018-12-11T10:49:52.966Z,6.20
2018-12-11T10:52:21.224Z,6.10
2018-12-11T10:54:49.555Z,6.10
2018-12-11T10:57:17.944Z,6.20
2018-12-11T10:59:46.317Z,6.30
2018-12-11T11:02:20.026Z,6.20
2018-12-11T11:04:48.270Z,6.10
2018-12-11T11:07:16.645Z,6.20
2018-12-11T11:09:46.587Z,6.20
2018-12-11T11:12:15.183Z,6.20
2018-12-11T11:14:43.512Z,6.00
2018-12-11T11:17:12.006Z,6.10
2018-12-11T11:19:40.312Z,6.20
2018-12-11T11:22:08.970Z,6.30
2018-12-11T11:24:37.325Z,6.20
2018-12-11T11:27:05.781Z,6.20
2018-12-11T11:29:34.146Z,6.30
2018-12-11T11:32:02.461Z,6.30
2018-12-11T11:34:39.774Z,6.20
2018-12-11T11:37:08.305Z,6.20
2018-12-11T11:39:36.698Z,6.10
2018-12-11T11:42:05.074Z,6.10
2018-12-11T11:44:33.386Z,6.20
2018-12-11T11:47:01.629Z,6.30
2018-12-11T11:49:29.956Z,6.20
2018-12-11T11:51:58.203Z,6.00
2018-12-11T11:54:26.537Z,6.00
2018-12-11T11:56:54.876Z,6.00
2018-12-11T11:59:23.634Z,6.10
2018-12-11T12:01:51.953Z,6.20
2018-12-11T12:04:20.290Z,6.10
2018-12-11T12:06:48.553Z,6.20
2018-12-11T12:09:16.947Z,6.00
2018-12-11T12:11:45.274Z,6.00
2018-12-11T12:14:13.641Z,6.00
2018-12-11T12:16:42.506Z,6.00
2018-12-11T12:19:10.718Z,6.00
2018-12-11T12:21:38.930Z,6.00
2018-12-11T12:24:07.238Z,6.00
2018-12-11T12:26:35.586Z,6.00
2018-12-11T12:29:04.007Z,6.00
2018-12-11T12:31:32.367Z,6.00
2018-12-11T12:34:00.727Z,6.10
2018-12-11T12:36:29.037Z,6.10
2018-12-11T12:38:57.261Z,5.80
2018-12-11T12:41:25.852Z,5.90
2018-12-11T12:43:54.138Z,6.00
2018-12-11T12:46:22.439Z,6.00
2018-12-11T12:48:50.744Z,6.00
2018-12-11T12:51:19.059Z,6.00
2018-12-11T12:53:47.283Z,6.00
2018-12-11T12:56:15.551Z,5.90
2018-12-11T12:58:43.846Z,6.00
2018-12-11T13:01:12.173Z,6.00
2018-12-11T13:03:40.829Z,6.00
2018-12-11T13:06:09.131Z,6.10
2018-12-11T13:08:37.367Z,6.10
2018-12-11T13:11:05.839Z,6.10
2018-12-11T13:13:34.073Z,6.20
2018-12-11T13:16:02.474Z,6.30
2018-12-11T13:18:30.806Z,6.40
2018-12-11T13:20:59.193Z,6.30
2018-12-11T13:23:27.621Z,6.40
2018-12-11T13:25:55.864Z,6.30
2018-12-11T13:28:24.233Z,6.20
2018-12-11T13:30:52.579Z,6.40
2018-12-11T13:33:20.884Z,6.30
2018-12-11T13:35:49.242Z,6.20
2018-12-11T13:38:17.607Z,6.30
2018-12-11T13:40:47.201Z,6.20
2018-12-11T13:43:15.463Z,6.20
2018-12-11T13:45:44.136Z,6.30
2018-12-11T13:48:12.586Z,6.10
2018-12-11T13:50:40.977Z,6.00
2018-12-11T13:53:09.282Z,6.20
2018-12-11T13:55:37.573Z,6.10
2018-12-11T13:58:05.898Z,6.20
2018-12-11T14:00:34.187Z,6.10
2018-12-11T14:03:02.450Z,6.30
2018-12-11T14:05:30.682Z,6.30
2018-12-11T14:07:59.002Z,6.10
2018-12-11T14:10:27.259Z,6.00
2018-12-11T14:12:55.539Z,6.00
2018-12-11T14:15:23.916Z,6.10
2018-12-11T14:17:52.159Z,6.10
2018-12-11T14:20:20.515Z,5.90
2018-12-11T14:22:48.775Z,6.00
2018-12-11T14:25:17.165Z,6.00
2018-12-11T14:27:45.431Z,5.90
2018-12-11T14:30:13.895Z,6.00
2018-12-11T14:32:42.138Z,5.90
2018-12-11T14:35:10.564Z,5.90
2018-12-11T14:37:38.778Z,5.90
2018-12-11T14:40:07.516Z,6.00
2018-12-11T14:42:35.790Z,6.00
2018-12-11T14:45:09.926Z,6.00
2018-12-11T14:47:39.591Z,5.90
2018-12-11T14:50:11.790Z,6.00
2018-12-11T14:52:43.439Z,6.00
2018-12-11T14:55:14.929Z,6.10
2018-12-11T14:57:46.380Z,6.20
2018-12-11T15:00:16.970Z,6.00
2018-12-11T15:02:49.236Z,6.10
2018-12-11T15:05:19.607Z,6.20
2018-12-11T15:07:48.994Z,6.30
2018-12-11T15:10:22.569Z,6.20
2018-12-11T15:12:53.335Z,6.20
2018-12-11T15:15:28.307Z,6.20
2018-12-11T15:17:58.867Z,6.30
2018-12-11T15:20:31.444Z,6.20
2018-12-11T15:23:01.159Z,6.30
2018-12-11T15:25:30.597Z,6.20
2018-12-11T15:28:02.299Z,6.30
2018-12-11T15:30:32.435Z,6.20
2018-12-11T15:33:03.431Z,6.20
2018-12-11T15:35:32.194Z,6.40
2018-12-11T15:38:02.069Z,6.20
2018-12-11T15:40:31.908Z,6.00
2018-12-11T15:43:02.193Z,6.00
2018-12-11T15:45:31.147Z,6.00
2018-12-11T15:48:00.684Z,6.00
2018-12-11T15:50:32.593Z,6.00
2018-12-11T15:53:00.972Z,6.00
2018-12-11T15:55:29.294Z,6.10
2018-12-11T15:57:57.553Z,6.10
2018-12-11T16:00:25.747Z,6.10
2018-12-11T16:02:54.181Z,6.00
2018-12-11T16:05:22.468Z,6.20
2018-12-11T16:07:50.826Z,6.20
2018-12-11T16:10:19.162Z,6.10
2018-12-11T16:12:47.459Z,6.20
2018-12-11T16:15:15.717Z,6.20
2018-12-11T16:17:43.954Z,5.90
2018-12-11T16:20:12.316Z,6.00
2018-12-11T16:22:40.558Z,6.10
2018-12-11T16:25:08.882Z,6.20
2018-12-11T16:27:37.366Z,6.30
2018-12-11T16:30:06.048Z,6.00
2018-12-11T16:32:34.316Z,6.00
2018-12-11T16:35:02.719Z,6.00
2018-12-11T16:37:31.294Z,6.00
2018-12-11T16:40:04.493Z,6.10
2018-12-11T16:42:30.139Z,6.00
2018-12-11T16:44:58.401Z,6.10
2018-12-11T16:47:26.745Z,6.00
2018-12-11T16:49:55.268Z,6.20
2018-12-11T16:52:23.668Z,6.30
2018-12-11T16:54:51.980Z,6.00
2018-12-11T16:57:20.531Z,5.80
2018-12-11T16:59:48.841Z,5.90
2018-12-11T17:02:17.095Z,5.80
2018-12-11T17:04:45.407Z,5.80
2018-12-11T17:07:14.098Z,5.80
2018-12-11T17:09:43.649Z,5.70
2018-12-11T17:12:12.985Z,5.80
2018-12-11T17:14:41.346Z,5.90
2018-12-11T17:17:09.650Z,6.00
2018-12-11T17:19:39.140Z,6.20
2018-12-11T17:22:07.570Z,6.10
2018-12-11T17:24:35.891Z,6.10
2018-12-11T17:27:04.463Z,6.10
2018-12-11T17:29:32.791Z,6.20
2018-12-11T17:32:01.052Z,6.00
2018-12-11T17:34:29.249Z,6.00
2018-12-11T17:36:57.542Z,6.10
2018-12-11T17:39:26.002Z,6.10
2018-12-11T17:41:54.339Z,6.00
2018-12-11T17:44:22.655Z,6.10
2018-12-11T17:46:50.981Z,6.10
2018-12-11T17:49:19.508Z,6.10
2018-12-11T17:51:47.899Z,6.00
2018-12-11T17:54:16.173Z,6.00
2018-12-11T17:56:44.653Z,6.10
2018-12-11T17:59:13.389Z,6.10
2018-12-11T18:01:42.884Z,6.00
2018-12-11T18:04:11.252Z,5.80
2018-12-11T18:06:40.355Z,5.90
2018-12-11T18:09:09.097Z,6.10
2018-12-11T18:11:37.428Z,6.10
2018-12-11T18:14:05.750Z,6.20
2018-12-11T18:16:34.248Z,6.10
2018-12-11T18:19:02.551Z,6.20
2018-12-11T18:21:30.816Z,6.30
2018-12-11T18:24:00.255Z,6.40
2018-12-11T18:26:28.563Z,6.40
2018-12-11T18:28:56.827Z,6.20
2018-12-11T18:31:25.168Z,6.20
2018-12-11T18:33:53.815Z,6.20
2018-12-11T18:36:22.379Z,6.20
2018-12-11T18:38:50.773Z,6.10
2018-12-11T18:41:19.209Z,6.10
2018-12-11T18:43:47.570Z,6.10
2018-12-11T18:46:15.867Z,6.10
2018-12-11T18:48:44.373Z,6.00
2018-12-11T18:51:12.741Z,6.00
2018-12-11T18:53:41.266Z,5.90
2018-12-11T18:56:09.728Z,6.00
2018-12-11T18:58:38.057Z,6.10
2018-12-11T19:01:07.513Z,6.20
2018-12-11T19:03:36.071Z,6.10
2018-12-11T19:06:04.465Z,6.10
2018-12-11T19:08:32.836Z,6.20
2018-12-11T19:11:01.182Z,6.20
2018-12-11T19:13:29.730Z,6.20
2018-12-11T19:15:58.401Z,6.20
2018-12-11T19:18:26.869Z,6.10
2018-12-11T19:20:55.219Z,6.00
2018-12-11T19:23:33.106Z,6.00
2018-12-11T19:26:01.421Z,6.00
2018-12-11T19:28:29.821Z,5.80
2018-12-11T19:30:58.213Z,5.90
2018-12-11T19:33:26.753Z,5.80
2018-12-11T19:35:55.120Z,5.80
2018-12-11T19:38:24.406Z,5.90
2018-12-11T19:40:52.884Z,5.80
2018-12-11T19:43:22.213Z,5.90
2018-12-11T19:45:50.522Z,5.70
2018-12-11T19:48:20.261Z,5.80
2018-12-11T19:50:48.839Z,5.90
2018-12-11T19:53:17.159Z,6.00
2018-12-11T19:55:45.870Z,6.10
2018-12-11T19:58:14.258Z,6.00
2018-12-11T20:00:42.711Z,5.80
2018-12-11T20:03:12.558Z,5.70
2018-12-11T20:05:41.499Z,5.60
2018-12-11T20:08:09.892Z,5.60
2018-12-11T20:10:38.274Z,5.50
2018-12-11T20:13:06.618Z,5.50
2018-12-11T20:15:34.974Z,5.40
2018-12-11T20:18:03.441Z,5.30
2018-12-11T20:20:32.293Z,5.30
2018-12-11T20:23:01.532Z,5.20
2018-12-11T20:25:31.932Z,5.20
2018-12-11T20:28:00.300Z,5.20
2018-12-11T20:30:29.723Z,5.20
2018-12-11T20:32:58.205Z,5.30
2018-12-11T20:35:26.609Z,5.20
2018-12-11T20:37:55.287Z,5.10
2018-12-11T20:40:23.944Z,5.10
2018-12-11T20:42:53.376Z,5.20
2018-12-11T20:45:23.931Z,5.20
2018-12-11T20:47:52.724Z,5.10
2018-12-11T20:50:21.733Z,5.20
2018-12-11T20:52:50.138Z,5.20
2018-12-11T20:55:18.780Z,5.20
2018-12-11T20:57:47.163Z,5.20
2018-12-11T21:00:16.707Z,5.10
2018-12-11T21:02:45.052Z,5.00
2018-12-11T21:05:14.387Z,4.90
2018-12-11T21:07:43.046Z,4.90
2018-12-11T21:10:12.880Z,4.90
2018-12-11T21:12:41.297Z,4.90
2018-12-11T21:15:09.790Z,4.90
2018-12-11T21:17:39.232Z,4.80
2018-12-11T21:20:09.215Z,4.70
2018-12-11T21:22:38.889Z,4.70
2018-12-11T21:25:09.894Z,4.70
2018-12-11T21:27:38.685Z,4.60
2018-12-11T21:30:10.253Z,4.60
2018-12-11T21:32:39.810Z,4.60
2018-12-11T21:35:09.097Z,4.70
2018-12-11T21:37:39.285Z,4.80
2018-12-11T21:40:08.370Z,4.80
2018-12-11T21:42:36.897Z,4.90
2018-12-11T21:45:06.289Z,4.80
2018-12-11T21:47:34.933Z,4.80
2018-12-11T21:50:04.624Z,4.80
2018-12-11T21:52:33.149Z,4.90
2018-12-11T21:57:39.357Z,4.80
2018-12-11T22:00:10.993Z,4.80
2018-12-11T22:02:40.461Z,4.90
2018-12-11T22:05:09.328Z,4.80
2018-12-11T22:07:39.331Z,4.70
2018-12-11T22:10:09.450Z,4.90
2018-12-11T22:12:38.401Z,4.80
2018-12-11T22:15:07.153Z,4.80
2018-12-11T22:17:35.858Z,4.90
2018-12-11T22:20:06.312Z,4.90
2018-12-11T22:22:35.118Z,4.80
2018-12-11T22:25:03.546Z,4.80
2018-12-11T22:27:32.904Z,4.80
2018-12-11T22:30:03.115Z,4.90
2018-12-11T22:32:32.106Z,5.00
2018-12-11T22:35:01.203Z,5.00
2018-12-11T22:37:29.878Z,4.90
2018-12-11T22:39:58.904Z,5.00
2018-12-11T22:45:07.175Z,5.00
2018-12-11T22:47:37.837Z,5.00
2018-12-11T22:50:06.519Z,5.00
2018-12-11T22:52:34.834Z,4.90
2018-12-11T22:55:03.270Z,4.90
2018-12-11T22:57:33.449Z,4.80
2018-12-11T23:00:01.703Z,4.80
2018-12-11T23:02:31.438Z,4.80
2018-12-11T23:05:01.687Z,4.80
2018-12-11T23:07:30.081Z,4.60
2018-12-11T23:09:59.428Z,4.60
2018-12-11T23:12:30.024Z,4.70
2018-12-11T23:14:58.975Z,4.70
2018-12-11T23:17:27.201Z,4.70
2018-12-11T23:19:55.408Z,4.60
2018-12-11T23:22:28.437Z,4.70
2018-12-11T23:24:56.721Z,4.70
2018-12-11T23:27:25.079Z,4.80
2018-12-11T23:29:53.721Z,4.70
2018-12-11T23:32:22.060Z,4.60
2018-12-11T23:34:52.020Z,4.70
2018-12-11T23:37:20.403Z,4.60
2018-12-11T23:39:49.636Z,4.50
2018-12-11T23:42:18.308Z,4.70
2018-12-11T23:44:46.815Z,4.80
2018-12-11T23:47:15.253Z,4.90
2018-12-11T23:49:43.471Z,5.00
2018-12-11T23:52:11.769Z,5.10
2018-12-11T23:54:40.367Z,5.20
2018-12-11T23:57:08.686Z,5.30
2018-12-11T23:59:38.609Z,5.30
